PWSweather.com
Personal Weather Stations
Station Observations
NAGEO265NE
Bedzin GrodziecPL 42-506

Bedzin GrodziecPL 42-506

Lat: 50.347, Lon: 19.079

Elevation: 948

Station Type: WH1080

http://www.meteo-grodziec.pl/

High Low Average
Temperature 60.8°F16.0°C 47.5°F8.6°C 52.4°F11.3°C
Dew Point 44.2°F6.8°C 38.3°F3.5°C 41.2°F5.1°C
Winds 11.0 mph 17.7 kmh Calm Calm 5.0 mph SW8.0 kmh SW
Wind Gusts 25.0 mph40.2 kmh 2.0 mph3.2 kmh 13.0 mph20.9 kmh
Humidity 82% 51% 66%
Pressure 29.72 in1006.4 mb 29.38 in994.9 mb -
Precipitation 0.05 in1.3 mm - -
Hour Temp Dew Point Humidity Winds Wind Gusts Pressure Precip Precip Rate Daily Precip Total
12:00 AM 48.7°F9.3°C 40.8°F4.9°C 74% 5.0 mph SW8.0 kmh SW 13.0 mph20.9 kmh 29.72 in1006.4 mb 0.00 in0.0 mm 0.00 in0.0 mm 0.00 in0.0 mm
12:05 AM 48.7°F9.3°C 40.8°F4.9°C 74% 5.0 mph SW8.0 kmh SW 13.0 mph20.9 kmh 29.72 in1006.4 mb 0.00 in0.0 mm 0.00 in0.0 mm 0.00 in0.0 mm
12:10 AM 48.6°F9.2°C 40.6°F4.8°C 74% 5.0 mph SW8.0 kmh SW 14.0 mph22.5 kmh 29.72 in1006.4 mb 0.00 in0.0 mm 0.00 in0.0 mm 0.00 in0.0 mm
12:15 AM 48.6°F9.2°C 40.6°F4.8°C 74% 5.0 mph SW8.0 kmh SW 14.0 mph22.5 kmh 29.72 in1006.4 mb 0.00 in0.0 mm 0.00 in0.0 mm 0.00 in0.0 mm
12:20 AM 48.6°F9.2°C 40.6°F4.8°C 74% 6.0 mph SW9.7 kmh SW 14.0 mph22.5 kmh 29.71 in1006.1 mb 0.00 in0.0 mm 0.00 in0.0 mm 0.00 in0.0 mm
12:25 AM 48.6°F9.2°C 40.6°F4.8°C 74% 6.0 mph SW9.7 kmh SW 13.0 mph20.9 kmh 29.71 in1006.1 mb 0.00 in0.0 mm 0.00 in0.0 mm 0.00 in0.0 mm
12:30 AM 48.6°F9.2°C 40.6°F4.8°C 74% 5.0 mph SW8.0 kmh SW 13.0 mph20.9 kmh 29.71 in1006.1 mb 0.00 in0.0 mm 0.00 in0.0 mm 0.00 in0.0 mm
12:35 AM 48.7°F9.3°C 40.8°F4.9°C 74% 5.0 mph SW8.0 kmh SW 14.0 mph22.5 kmh 29.71 in1006.1 mb 0.00 in0.0 mm 0.00 in0.0 mm 0.00 in0.0 mm
12:40 AM 48.6°F9.2°C 40.6°F4.8°C 74% 5.0 mph SW8.0 kmh SW 14.0 mph22.5 kmh 29.71 in1006.1 mb 0.00 in0.0 mm 0.00 in0.0 mm 0.00 in0.0 mm
12:45 AM 48.6°F9.2°C 40.6°F4.8°C 74% 5.0 mph SW8.0 kmh SW 15.0 mph24.1 kmh 29.71 in1006.1 mb 0.00 in0.0 mm 0.00 in0.0 mm 0.00 in0.0 mm
12:50 AM 48.6°F9.2°C 40.6°F4.8°C 74% 5.0 mph SW8.0 kmh SW 15.0 mph24.1 kmh 29.71 in1006.1 mb 0.00 in0.0 mm 0.00 in0.0 mm 0.00 in0.0 mm
12:55 AM 48.7°F9.3°C 40.8°F4.9°C 74% 6.0 mph SW9.7 kmh SW 12.0 mph19.3 kmh 29.70 in1005.8 mb 0.00 in0.0 mm 0.00 in0.0 mm 0.00 in0.0 mm
01:00 AM 48.7°F9.3°C 40.8°F4.9°C 74% 6.0 mph SW9.7 kmh SW 12.0 mph19.3 kmh 29.71 in1006.1 mb 0.00 in0.0 mm 0.00 in0.0 mm 0.00 in0.0 mm
01:05 AM 48.7°F9.3°C 40.5°F4.7°C 73% 5.0 mph SW8.0 kmh SW 13.0 mph20.9 kmh 29.71 in1006.1 mb 0.00 in0.0 mm 0.00 in0.0 mm 0.00 in0.0 mm
01:10 AM 48.6°F9.2°C 40.6°F4.8°C 74% 5.0 mph SW8.0 kmh SW 13.0 mph20.9 kmh 29.70 in1005.8 mb 0.00 in0.0 mm 0.00 in0.0 mm 0.00 in0.0 mm
01:15 AM 48.7°F9.3°C 40.8°F4.9°C 74% 5.0 mph SW8.0 kmh SW 9.0 mph14.5 kmh 29.71 in1006.1 mb 0.00 in0.0 mm 0.00 in0.0 mm 0.00 in0.0 mm
01:20 AM 48.7°F9.3°C 40.8°F4.9°C 74% 5.0 mph SW8.0 kmh SW 11.0 mph17.7 kmh 29.71 in1006.1 mb 0.00 in0.0 mm 0.00 in0.0 mm 0.00 in0.0 mm
01:25 AM 48.7°F9.3°C 40.8°F4.9°C 74% 5.0 mph SW8.0 kmh SW 12.0 mph19.3 kmh 29.71 in1006.1 mb 0.00 in0.0 mm 0.00 in0.0 mm 0.00 in0.0 mm
01:30 AM 48.7°F9.3°C 40.8°F4.9°C 74% 5.0 mph SW8.0 kmh SW 12.0 mph19.3 kmh 29.70 in1005.8 mb 0.00 in0.0 mm 0.00 in0.0 mm 0.00 in0.0 mm
01:35 AM 48.7°F9.3°C 40.8°F4.9°C 74% 6.0 mph SW9.7 kmh SW 12.0 mph19.3 kmh 29.70 in1005.8 mb 0.00 in0.0 mm 0.00 in0.0 mm 0.00 in0.0 mm
01:40 AM 48.7°F9.3°C 40.5°F4.7°C 73% 6.0 mph SW9.7 kmh SW 14.0 mph22.5 kmh 29.70 in1005.8 mb 0.00 in0.0 mm 0.00 in0.0 mm 0.00 in0.0 mm
01:45 AM 48.7°F9.3°C 40.8°F4.9°C 74% 5.0 mph SW8.0 kmh SW 14.0 mph22.5 kmh 29.70 in1005.8 mb 0.00 in0.0 mm 0.00 in0.0 mm 0.00 in0.0 mm
01:50 AM 48.7°F9.3°C 40.8°F4.9°C 74% 5.0 mph SW8.0 kmh SW 12.0 mph19.3 kmh 29.69 in1005.4 mb 0.00 in0.0 mm 0.00 in0.0 mm 0.00 in0.0 mm
01:55 AM 48.9°F9.4°C 40.6°F4.8°C 73% 6.0 mph SW9.7 kmh SW 12.0 mph19.3 kmh 29.69 in1005.4 mb 0.00 in0.0 mm 0.00 in0.0 mm 0.00 in0.0 mm
02:00 AM 48.7°F9.3°C 40.5°F4.7°C 73% 6.0 mph SW9.7 kmh SW 11.0 mph17.7 kmh 29.69 in1005.4 mb 0.00 in0.0 mm 0.00 in0.0 mm 0.00 in0.0 mm
02:05 AM 48.7°F9.3°C 40.8°F4.9°C 74% 5.0 mph SW8.0 kmh SW 11.0 mph17.7 kmh 29.69 in1005.4 mb 0.00 in0.0 mm 0.00 in0.0 mm 0.00 in0.0 mm
02:10 AM 48.6°F9.2°C 40.6°F4.8°C 74% 4.0 mph SW6.4 kmh SW 11.0 mph17.7 kmh 29.69 in1005.4 mb 0.00 in0.0 mm 0.00 in0.0 mm 0.00 in0.0 mm
02:15 AM 48.6°F9.2°C 40.6°F4.8°C 74% 4.0 mph SW6.4 kmh SW 9.0 mph14.5 kmh 29.68 in1005.1 mb 0.00 in0.0 mm 0.00 in0.0 mm 0.00 in0.0 mm
02:20 AM 48.4°F9.1°C 40.5°F4.7°C 74% 4.0 mph SW6.4 kmh SW 8.0 mph12.9 kmh 29.68 in1005.1 mb 0.00 in0.0 mm 0.00 in0.0 mm 0.00 in0.0 mm
02:25 AM 48.4°F9.1°C 40.5°F4.7°C 74% 4.0 mph SW6.4 kmh SW 12.0 mph19.3 kmh 29.68 in1005.1 mb 0.00 in0.0 mm 0.00 in0.0 mm 0.00 in0.0 mm
02:30 AM 48.4°F9.1°C 40.8°F4.9°C 75% 3.0 mph SW4.8 kmh SW 12.0 mph19.3 kmh 29.68 in1005.1 mb 0.00 in0.0 mm 0.00 in0.0 mm 0.00 in0.0 mm
02:35 AM 48.4°F9.1°C 40.8°F4.9°C 75% 3.0 mph SW4.8 kmh SW 7.0 mph11.3 kmh 29.67 in1004.7 mb 0.00 in0.0 mm 0.00 in0.0 mm 0.00 in0.0 mm
02:40 AM 48.4°F9.1°C 40.8°F4.9°C 75% 3.0 mph SW4.8 kmh SW 11.0 mph17.7 kmh 29.67 in1004.7 mb 0.00 in0.0 mm 0.00 in0.0 mm 0.00 in0.0 mm
02:45 AM 48.4°F9.1°C 40.5°F4.7°C 74% 4.0 mph SW6.4 kmh SW 11.0 mph17.7 kmh 29.67 in1004.7 mb 0.00 in0.0 mm 0.00 in0.0 mm 0.00 in0.0 mm
02:50 AM 48.6°F9.2°C 40.6°F4.8°C 74% 4.0 mph SW6.4 kmh SW 9.0 mph14.5 kmh 29.67 in1004.7 mb 0.00 in0.0 mm 0.00 in0.0 mm 0.00 in0.0 mm
02:55 AM 48.6°F9.2°C 40.6°F4.8°C 74% 4.0 mph SW6.4 kmh SW 10.0 mph16.1 kmh 29.67 in1004.7 mb 0.00 in0.0 mm 0.00 in0.0 mm 0.00 in0.0 mm
03:00 AM 48.6°F9.2°C 40.6°F4.8°C 74% 4.0 mph SW6.4 kmh SW 10.0 mph16.1 kmh 29.66 in1004.4 mb 0.00 in0.0 mm 0.00 in0.0 mm 0.00 in0.0 mm
03:05 AM 48.6°F9.2°C 40.6°F4.8°C 74% 5.0 mph SW8.0 kmh SW 11.0 mph17.7 kmh 29.66 in1004.4 mb 0.00 in0.0 mm 0.00 in0.0 mm 0.00 in0.0 mm
03:10 AM 48.6°F9.2°C 40.6°F4.8°C 74% 4.0 mph SW6.4 kmh SW 11.0 mph17.7 kmh 29.66 in1004.4 mb 0.00 in0.0 mm 0.00 in0.0 mm 0.00 in0.0 mm
03:15 AM 48.6°F9.2°C 40.6°F4.8°C 74% 4.0 mph SW6.4 kmh SW 9.0 mph14.5 kmh 29.66 in1004.4 mb 0.00 in0.0 mm 0.00 in0.0 mm 0.00 in0.0 mm
03:20 AM 48.6°F9.2°C 41.0°F5.0°C 75% 4.0 mph SW6.4 kmh SW 8.0 mph12.9 kmh 29.66 in1004.4 mb 0.00 in0.0 mm 0.00 in0.0 mm 0.00 in0.0 mm
03:25 AM 48.6°F9.2°C 41.0°F5.0°C 75% 4.0 mph SW6.4 kmh SW 9.0 mph14.5 kmh 29.66 in1004.4 mb 0.00 in0.0 mm 0.00 in0.0 mm 0.00 in0.0 mm
03:30 AM 48.6°F9.2°C 41.0°F5.0°C 75% 4.0 mph SW6.4 kmh SW 9.0 mph14.5 kmh 29.66 in1004.4 mb 0.00 in0.0 mm 0.00 in0.0 mm 0.00 in0.0 mm
03:35 AM 48.4°F9.1°C 40.8°F4.9°C 75% 3.0 mph SW4.8 kmh SW 9.0 mph14.5 kmh 29.65 in1004.1 mb 0.00 in0.0 mm 0.00 in0.0 mm 0.00 in0.0 mm
03:40 AM 48.4°F9.1°C 40.8°F4.9°C 75% 4.0 mph SW6.4 kmh SW 9.0 mph14.5 kmh 29.65 in1004.1 mb 0.00 in0.0 mm 0.00 in0.0 mm 0.00 in0.0 mm
03:45 AM 48.4°F9.1°C 40.8°F4.9°C 75% 3.0 mph SW4.8 kmh SW 9.0 mph14.5 kmh 29.65 in1004.1 mb 0.00 in0.0 mm 0.00 in0.0 mm 0.00 in0.0 mm
03:50 AM 48.4°F9.1°C 40.8°F4.9°C 75% 4.0 mph SW6.4 kmh SW 9.0 mph14.5 kmh 29.65 in1004.1 mb 0.00 in0.0 mm 0.00 in0.0 mm 0.00 in0.0 mm
03:55 AM 48.4°F9.1°C 40.8°F4.9°C 75% 3.0 mph SW4.8 kmh SW 9.0 mph14.5 kmh 29.65 in1004.1 mb 0.00 in0.0 mm 0.00 in0.0 mm 0.00 in0.0 mm
04:00 AM 48.4°F9.1°C 40.8°F4.9°C 75% 3.0 mph SW4.8 kmh SW 8.0 mph12.9 kmh 29.65 in1004.1 mb 0.00 in0.0 mm 0.00 in0.0 mm 0.00 in0.0 mm
04:05 AM 48.2°F9.0°C 40.6°F4.8°C 75% 3.0 mph SW4.8 kmh SW 8.0 mph12.9 kmh 29.65 in1004.1 mb 0.00 in0.0 mm 0.00 in0.0 mm 0.00 in0.0 mm
04:10 AM 48.2°F9.0°C 41.0°F5.0°C 76% 4.0 mph SW6.4 kmh SW 10.0 mph16.1 kmh 29.65 in1004.1 mb 0.00 in0.0 mm 0.00 in0.0 mm 0.00 in0.0 mm
04:15 AM 48.4°F9.1°C 40.8°F4.9°C 75% 4.0 mph SW6.4 kmh SW 10.0 mph16.1 kmh 29.65 in1004.1 mb 0.00 in0.0 mm 0.00 in0.0 mm 0.00 in0.0 mm
04:20 AM 48.2°F9.0°C 40.6°F4.8°C 75% 3.0 mph SW4.8 kmh SW 8.0 mph12.9 kmh 29.64 in1003.7 mb 0.00 in0.0 mm 0.00 in0.0 mm 0.00 in0.0 mm
04:25 AM 48.2°F9.0°C 40.6°F4.8°C 75% 3.0 mph SW4.8 kmh SW 7.0 mph11.3 kmh 29.64 in1003.7 mb 0.00 in0.0 mm 0.00 in0.0 mm 0.00 in0.0 mm
04:30 AM 48.0°F8.9°C 40.8°F4.9°C 76% 3.0 mph SW4.8 kmh SW 8.0 mph12.9 kmh 29.64 in1003.7 mb 0.00 in0.0 mm 0.00 in0.0 mm 0.00 in0.0 mm
04:35 AM 48.4°F9.1°C 40.8°F4.9°C 75% 4.0 mph SW6.4 kmh SW 10.0 mph16.1 kmh 29.64 in1003.7 mb 0.00 in0.0 mm 0.00 in0.0 mm 0.00 in0.0 mm
04:40 AM 48.4°F9.1°C 40.8°F4.9°C 75% 5.0 mph SW8.0 kmh SW 10.0 mph16.1 kmh 29.65 in1004.1 mb 0.00 in0.0 mm 0.00 in0.0 mm 0.00 in0.0 mm
04:45 AM 48.4°F9.1°C 40.8°F4.9°C 75% 4.0 mph SW6.4 kmh SW 11.0 mph17.7 kmh 29.65 in1004.1 mb 0.00 in0.0 mm 0.00 in0.0 mm 0.00 in0.0 mm
04:50 AM 48.4°F9.1°C 40.8°F4.9°C 75% 5.0 mph SW8.0 kmh SW 11.0 mph17.7 kmh 29.64 in1003.7 mb 0.00 in0.0 mm 0.00 in0.0 mm 0.00 in0.0 mm
04:55 AM 48.4°F9.1°C 40.5°F4.7°C 74% 6.0 mph SW9.7 kmh SW 17.0 mph27.4 kmh 29.64 in1003.7 mb 0.00 in0.0 mm 0.00 in0.0 mm 0.00 in0.0 mm
05:00 AM 48.6°F9.2°C 40.6°F4.8°C 74% 6.0 mph SW9.7 kmh SW 17.0 mph27.4 kmh 29.64 in1003.7 mb 0.00 in0.0 mm 0.00 in0.0 mm 0.00 in0.0 mm
05:05 AM 48.4°F9.1°C 40.5°F4.7°C 74% 7.0 mph SW11.3 kmh SW 16.0 mph25.7 kmh 29.64 in1003.7 mb 0.00 in0.0 mm 0.00 in0.0 mm 0.00 in0.0 mm
05:10 AM 48.4°F9.1°C 40.5°F4.7°C 74% 6.0 mph SW9.7 kmh SW 13.0 mph20.9 kmh 29.64 in1003.7 mb 0.00 in0.0 mm 0.00 in0.0 mm 0.00 in0.0 mm
05:15 AM 48.4°F9.1°C 40.5°F4.7°C 74% 5.0 mph SW8.0 kmh SW 11.0 mph17.7 kmh 29.64 in1003.7 mb 0.00 in0.0 mm 0.00 in0.0 mm 0.00 in0.0 mm
05:20 AM 48.2°F9.0°C 40.6°F4.8°C 75% 6.0 mph SW9.7 kmh SW 11.0 mph17.7 kmh 29.64 in1003.7 mb 0.00 in0.0 mm 0.00 in0.0 mm 0.00 in0.0 mm
05:25 AM 48.2°F9.0°C 40.6°F4.8°C 75% 6.0 mph SW9.7 kmh SW 15.0 mph24.1 kmh 29.64 in1003.7 mb 0.00 in0.0 mm 0.00 in0.0 mm 0.00 in0.0 mm
05:30 AM 48.4°F9.1°C 40.8°F4.9°C 75% 6.0 mph SW9.7 kmh SW 15.0 mph24.1 kmh 29.64 in1003.7 mb 0.00 in0.0 mm 0.00 in0.0 mm 0.00 in0.0 mm
05:35 AM 48.2°F9.0°C 40.6°F4.8°C 75% 5.0 mph SW8.0 kmh SW 12.0 mph19.3 kmh 29.63 in1003.4 mb 0.00 in0.0 mm 0.00 in0.0 mm 0.00 in0.0 mm
05:40 AM 48.2°F9.0°C 40.6°F4.8°C 75% 5.0 mph SW8.0 kmh SW 11.0 mph17.7 kmh 29.62 in1003.0 mb 0.00 in0.0 mm 0.00 in0.0 mm 0.00 in0.0 mm
05:45 AM 48.4°F9.1°C 40.8°F4.9°C 75% 6.0 mph SW9.7 kmh SW 12.0 mph19.3 kmh 29.62 in1003.0 mb 0.00 in0.0 mm 0.00 in0.0 mm 0.00 in0.0 mm
05:50 AM 48.4°F9.1°C 40.8°F4.9°C 75% 5.0 mph SW8.0 kmh SW 12.0 mph19.3 kmh 29.63 in1003.4 mb 0.00 in0.0 mm 0.00 in0.0 mm 0.00 in0.0 mm
05:55 AM 48.4°F9.1°C 40.8°F4.9°C 75% 6.0 mph SW9.7 kmh SW 14.0 mph22.5 kmh 29.63 in1003.4 mb 0.00 in0.0 mm 0.00 in0.0 mm 0.00 in0.0 mm
06:00 AM 48.6°F9.2°C 40.6°F4.8°C 74% 6.0 mph SW9.7 kmh SW 14.0 mph22.5 kmh 29.63 in1003.4 mb 0.00 in0.0 mm 0.00 in0.0 mm 0.00 in0.0 mm
06:05 AM 48.7°F9.3°C 40.8°F4.9°C 74% 6.0 mph SW9.7 kmh SW 18.0 mph29.0 kmh 29.63 in1003.4 mb 0.00 in0.0 mm 0.00 in0.0 mm 0.00 in0.0 mm
06:10 AM 48.7°F9.3°C 40.8°F4.9°C 74% 7.0 mph SW11.3 kmh SW 18.0 mph29.0 kmh 29.63 in1003.4 mb 0.00 in0.0 mm 0.00 in0.0 mm 0.00 in0.0 mm
06:15 AM 48.7°F9.3°C 40.8°F4.9°C 74% 6.0 mph SW9.7 kmh SW 14.0 mph22.5 kmh 29.62 in1003.0 mb 0.00 in0.0 mm 0.00 in0.0 mm 0.00 in0.0 mm
06:20 AM 48.9°F9.4°C 41.0°F5.0°C 74% 6.0 mph SW9.7 kmh SW 14.0 mph22.5 kmh 29.63 in1003.4 mb 0.00 in0.0 mm 0.00 in0.0 mm 0.00 in0.0 mm
06:25 AM 48.7°F9.3°C 40.8°F4.9°C 74% 6.0 mph SW9.7 kmh SW 14.0 mph22.5 kmh 29.63 in1003.4 mb 0.00 in0.0 mm 0.00 in0.0 mm 0.00 in0.0 mm
06:30 AM 48.7°F9.3°C 40.8°F4.9°C 74% 5.0 mph SW8.0 kmh SW 12.0 mph19.3 kmh 29.62 in1003.0 mb 0.00 in0.0 mm 0.00 in0.0 mm 0.00 in0.0 mm
06:35 AM 48.7°F9.3°C 40.8°F4.9°C 74% 6.0 mph SW9.7 kmh SW 12.0 mph19.3 kmh 29.62 in1003.0 mb 0.00 in0.0 mm 0.00 in0.0 mm 0.00 in0.0 mm
06:40 AM 48.7°F9.3°C 40.8°F4.9°C 74% 6.0 mph SW9.7 kmh SW 14.0 mph22.5 kmh 29.62 in1003.0 mb 0.00 in0.0 mm 0.00 in0.0 mm 0.00 in0.0 mm
06:45 AM 48.7°F9.3°C 40.8°F4.9°C 74% 6.0 mph SW9.7 kmh SW 14.0 mph22.5 kmh 29.61 in1002.7 mb 0.00 in0.0 mm 0.00 in0.0 mm 0.00 in0.0 mm
06:50 AM 48.6°F9.2°C 40.6°F4.8°C 74% 5.0 mph SW8.0 kmh SW 10.0 mph16.1 kmh 29.62 in1003.0 mb 0.00 in0.0 mm 0.00 in0.0 mm 0.00 in0.0 mm
06:55 AM 48.7°F9.3°C 40.8°F4.9°C 74% 5.0 mph SW8.0 kmh SW 12.0 mph19.3 kmh 29.62 in1003.0 mb 0.00 in0.0 mm 0.00 in0.0 mm 0.00 in0.0 mm
07:00 AM 48.7°F9.3°C 40.5°F4.7°C 73% 6.0 mph SW9.7 kmh SW 12.0 mph19.3 kmh 29.62 in1003.0 mb 0.00 in0.0 mm 0.00 in0.0 mm 0.00 in0.0 mm
07:05 AM 48.7°F9.3°C 40.5°F4.7°C 73% 5.0 mph SW8.0 kmh SW 12.0 mph19.3 kmh 29.62 in1003.0 mb 0.00 in0.0 mm 0.00 in0.0 mm 0.00 in0.0 mm
07:10 AM 48.7°F9.3°C 40.5°F4.7°C 73% 5.0 mph SW8.0 kmh SW 11.0 mph17.7 kmh 29.61 in1002.7 mb 0.00 in0.0 mm 0.00 in0.0 mm 0.00 in0.0 mm
07:15 AM 48.6°F9.2°C 40.3°F4.6°C 73% 5.0 mph SW8.0 kmh SW 11.0 mph17.7 kmh 29.61 in1002.7 mb 0.00 in0.0 mm 0.00 in0.0 mm 0.00 in0.0 mm
07:20 AM 48.6°F9.2°C 40.3°F4.6°C 73% 5.0 mph SW8.0 kmh SW 11.0 mph17.7 kmh 29.61 in1002.7 mb 0.00 in0.0 mm 0.00 in0.0 mm 0.00 in0.0 mm
07:25 AM 48.6°F9.2°C 40.3°F4.6°C 73% 5.0 mph SW8.0 kmh SW 13.0 mph20.9 kmh 29.61 in1002.7 mb 0.00 in0.0 mm 0.00 in0.0 mm 0.00 in0.0 mm
07:30 AM 48.7°F9.3°C 40.5°F4.7°C 73% 6.0 mph SW9.7 kmh SW 13.0 mph20.9 kmh 29.61 in1002.7 mb 0.00 in0.0 mm 0.00 in0.0 mm 0.00 in0.0 mm
07:35 AM 48.7°F9.3°C 40.5°F4.7°C 73% 5.0 mph SW8.0 kmh SW 13.0 mph20.9 kmh 29.61 in1002.7 mb 0.00 in0.0 mm 0.00 in0.0 mm 0.00 in0.0 mm
07:40 AM 48.7°F9.3°C 40.5°F4.7°C 73% 5.0 mph SW8.0 kmh SW 11.0 mph17.7 kmh 29.61 in1002.7 mb 0.00 in0.0 mm 0.00 in0.0 mm 0.00 in0.0 mm
07:45 AM 48.7°F9.3°C 40.5°F4.7°C 73% 5.0 mph SW8.0 kmh SW 12.0 mph19.3 kmh 29.61 in1002.7 mb 0.00 in0.0 mm 0.00 in0.0 mm 0.00 in0.0 mm
07:50 AM 48.7°F9.3°C 40.5°F4.7°C 73% 5.0 mph SW8.0 kmh SW 13.0 mph20.9 kmh 29.61 in1002.7 mb 0.00 in0.0 mm 0.00 in0.0 mm 0.00 in0.0 mm
07:55 AM 48.7°F9.3°C 40.5°F4.7°C 73% 6.0 mph SW9.7 kmh SW 13.0 mph20.9 kmh 29.61 in1002.7 mb 0.00 in0.0 mm 0.00 in0.0 mm 0.00 in0.0 mm
08:00 AM 48.7°F9.3°C 40.5°F4.7°C 73% 5.0 mph SW8.0 kmh SW 11.0 mph17.7 kmh 29.61 in1002.7 mb 0.00 in0.0 mm 0.00 in0.0 mm 0.00 in0.0 mm
08:05 AM 48.7°F9.3°C 40.5°F4.7°C 73% 5.0 mph SW8.0 kmh SW 13.0 mph20.9 kmh 29.61 in1002.7 mb 0.00 in0.0 mm 0.00 in0.0 mm 0.00 in0.0 mm
08:10 AM 48.9°F9.4°C 40.6°F4.8°C 73% 5.0 mph SW8.0 kmh SW 13.0 mph20.9 kmh 29.60 in1002.4 mb 0.00 in0.0 mm 0.00 in0.0 mm 0.00 in0.0 mm
08:15 AM 49.5°F9.7°C 41.2°F5.1°C 73% 5.0 mph SW8.0 kmh SW 12.0 mph19.3 kmh 29.61 in1002.7 mb 0.00 in0.0 mm 0.00 in0.0 mm 0.00 in0.0 mm
08:20 AM 49.8°F9.9°C 41.2°F5.1°C 72% 6.0 mph SW9.7 kmh SW 14.0 mph22.5 kmh 29.61 in1002.7 mb 0.00 in0.0 mm 0.00 in0.0 mm 0.00 in0.0 mm
08:25 AM 50.4°F10.2°C 41.2°F5.1°C 71% 7.0 mph SW11.3 kmh SW 14.0 mph22.5 kmh 29.61 in1002.7 mb 0.00 in0.0 mm 0.00 in0.0 mm 0.00 in0.0 mm
08:30 AM 50.5°F10.3°C 41.2°F5.1°C 70% 7.0 mph SW11.3 kmh SW 15.0 mph24.1 kmh 29.61 in1002.7 mb 0.00 in0.0 mm 0.00 in0.0 mm 0.00 in0.0 mm
08:35 AM 50.7°F10.4°C 41.4°F5.2°C 70% 8.0 mph SW12.9 kmh SW 15.0 mph24.1 kmh 29.60 in1002.4 mb 0.00 in0.0 mm 0.00 in0.0 mm 0.00 in0.0 mm
08:40 AM 51.1°F10.6°C 41.2°F5.1°C 69% 8.0 mph SW12.9 kmh SW 17.0 mph27.4 kmh 29.60 in1002.4 mb 0.00 in0.0 mm 0.00 in0.0 mm 0.00 in0.0 mm
08:45 AM 51.3°F10.7°C 41.4°F5.2°C 69% 8.0 mph SW12.9 kmh SW 20.0 mph32.2 kmh 29.60 in1002.4 mb 0.00 in0.0 mm 0.00 in0.0 mm 0.00 in0.0 mm
08:50 AM 51.6°F10.9°C 41.5°F5.3°C 68% 7.0 mph SW11.3 kmh SW 20.0 mph32.2 kmh 29.60 in1002.4 mb 0.00 in0.0 mm 0.00 in0.0 mm 0.00 in0.0 mm
08:55 AM 52.0°F11.1°C 41.7°F5.4°C 68% 7.0 mph SW11.3 kmh SW 15.0 mph24.1 kmh 29.60 in1002.4 mb 0.00 in0.0 mm 0.00 in0.0 mm 0.00 in0.0 mm
09:00 AM 52.2°F11.2°C 41.9°F5.5°C 68% 7.0 mph SW11.3 kmh SW 16.0 mph25.7 kmh 29.60 in1002.4 mb 0.00 in0.0 mm 0.00 in0.0 mm 0.00 in0.0 mm
09:05 AM 52.3°F11.3°C 41.7°F5.4°C 67% 8.0 mph SW12.9 kmh SW 16.0 mph25.7 kmh 29.59 in1002.0 mb 0.00 in0.0 mm 0.00 in0.0 mm 0.00 in0.0 mm
09:10 AM 52.5°F11.4°C 41.9°F5.5°C 67% 8.0 mph SW12.9 kmh SW 14.0 mph22.5 kmh 29.59 in1002.0 mb 0.00 in0.0 mm 0.00 in0.0 mm 0.00 in0.0 mm
09:15 AM 52.9°F11.6°C 41.7°F5.4°C 66% 7.0 mph SW11.3 kmh SW 15.0 mph24.1 kmh 29.59 in1002.0 mb 0.00 in0.0 mm 0.00 in0.0 mm 0.00 in0.0 mm
09:20 AM 53.1°F11.7°C 41.9°F5.5°C 66% 8.0 mph SW12.9 kmh SW 15.0 mph24.1 kmh 29.59 in1002.0 mb 0.00 in0.0 mm 0.00 in0.0 mm 0.00 in0.0 mm
09:25 AM 53.2°F11.8°C 42.3°F5.7°C 66% 7.0 mph SW11.3 kmh SW 15.0 mph24.1 kmh 29.59 in1002.0 mb 0.00 in0.0 mm 0.00 in0.0 mm 0.00 in0.0 mm
09:30 AM 53.2°F11.8°C 41.7°F5.4°C 65% 8.0 mph SW12.9 kmh SW 21.0 mph33.8 kmh 29.58 in1001.7 mb 0.00 in0.0 mm 0.00 in0.0 mm 0.00 in0.0 mm
09:35 AM 53.4°F11.9°C 42.3°F5.7°C 66% 9.0 mph SW14.5 kmh SW 21.0 mph33.8 kmh 29.58 in1001.7 mb 0.00 in0.0 mm 0.00 in0.0 mm 0.00 in0.0 mm
09:40 AM 53.6°F12.0°C 42.1°F5.6°C 65% 9.0 mph SW14.5 kmh SW 16.0 mph25.7 kmh 29.57 in1001.4 mb 0.00 in0.0 mm 0.00 in0.0 mm 0.00 in0.0 mm
09:45 AM 54.0°F12.2°C 42.4°F5.8°C 65% 8.0 mph SW12.9 kmh SW 16.0 mph25.7 kmh 29.57 in1001.4 mb 0.00 in0.0 mm 0.00 in0.0 mm 0.00 in0.0 mm
09:50 AM 54.1°F12.3°C 42.3°F5.7°C 64% 8.0 mph SW12.9 kmh SW 17.0 mph27.4 kmh 29.57 in1001.4 mb 0.00 in0.0 mm 0.00 in0.0 mm 0.00 in0.0 mm
09:55 AM 54.1°F12.3°C 42.3°F5.7°C 64% 8.0 mph SW12.9 kmh SW 17.0 mph27.4 kmh 29.58 in1001.7 mb 0.00 in0.0 mm 0.00 in0.0 mm 0.00 in0.0 mm
10:00 AM 54.9°F12.7°C 42.8°F6.0°C 64% 7.0 mph SW11.3 kmh SW 17.0 mph27.4 kmh 29.58 in1001.7 mb 0.00 in0.0 mm 0.00 in0.0 mm 0.00 in0.0 mm
10:05 AM 54.9°F12.7°C 42.6°F5.9°C 63% 7.0 mph SW11.3 kmh SW 17.0 mph27.4 kmh 29.58 in1001.7 mb 0.00 in0.0 mm 0.00 in0.0 mm 0.00 in0.0 mm
10:10 AM 55.6°F13.1°C 43.2°F6.2°C 63% 7.0 mph SW11.3 kmh SW 15.0 mph24.1 kmh 29.57 in1001.4 mb 0.00 in0.0 mm 0.00 in0.0 mm 0.00 in0.0 mm
10:15 AM 55.6°F13.1°C 42.6°F5.9°C 62% 6.0 mph SW9.7 kmh SW 17.0 mph27.4 kmh 29.57 in1001.4 mb 0.00 in0.0 mm 0.00 in0.0 mm 0.00 in0.0 mm
10:20 AM 55.8°F13.2°C 42.8°F6.0°C 62% 7.0 mph SW11.3 kmh SW 17.0 mph27.4 kmh 29.56 in1001.0 mb 0.00 in0.0 mm 0.00 in0.0 mm 0.00 in0.0 mm
10:25 AM 55.8°F13.2°C 42.8°F6.0°C 62% 8.0 mph SW12.9 kmh SW 17.0 mph27.4 kmh 29.57 in1001.4 mb 0.00 in0.0 mm 0.00 in0.0 mm 0.00 in0.0 mm
10:30 AM 55.8°F13.2°C 43.0°F6.1°C 62% 7.0 mph SW11.3 kmh SW 17.0 mph27.4 kmh 29.57 in1001.4 mb 0.00 in0.0 mm 0.00 in0.0 mm 0.00 in0.0 mm
10:35 AM 55.8°F13.2°C 42.8°F6.0°C 62% 7.0 mph SW11.3 kmh SW 15.0 mph24.1 kmh 29.56 in1001.0 mb 0.00 in0.0 mm 0.00 in0.0 mm 0.00 in0.0 mm
10:40 AM 55.6°F13.1°C 42.8°F6.0°C 62% 7.0 mph SW11.3 kmh SW 18.0 mph29.0 kmh 29.56 in1001.0 mb 0.00 in0.0 mm 0.00 in0.0 mm 0.00 in0.0 mm
10:45 AM 55.6°F13.1°C 42.6°F5.9°C 62% 8.0 mph SW12.9 kmh SW 18.0 mph29.0 kmh 29.55 in1000.7 mb 0.00 in0.0 mm 0.00 in0.0 mm 0.00 in0.0 mm
10:50 AM 55.4°F13.0°C 42.6°F5.9°C 62% 9.0 mph SW14.5 kmh SW 19.0 mph30.6 kmh 29.55 in1000.7 mb 0.00 in0.0 mm 0.00 in0.0 mm 0.00 in0.0 mm
10:55 AM 55.2°F12.9°C 43.0°F6.1°C 63% 8.0 mph SW12.9 kmh SW 19.0 mph30.6 kmh 29.55 in1000.7 mb 0.00 in0.0 mm 0.00 in0.0 mm 0.00 in0.0 mm
11:00 AM 55.2°F12.9°C 43.0°F6.1°C 63% 7.0 mph SW11.3 kmh SW 14.0 mph22.5 kmh 29.55 in1000.7 mb 0.00 in0.0 mm 0.00 in0.0 mm 0.00 in0.0 mm
11:05 AM 55.2°F12.9°C 43.0°F6.1°C 63% 6.0 mph SW9.7 kmh SW 14.0 mph22.5 kmh 29.55 in1000.7 mb 0.00 in0.0 mm 0.00 in0.0 mm 0.00 in0.0 mm
11:10 AM 55.6°F13.1°C 43.2°F6.2°C 63% 5.0 mph SW8.0 kmh SW 12.0 mph19.3 kmh 29.55 in1000.7 mb 0.00 in0.0 mm 0.00 in0.0 mm 0.00 in0.0 mm
11:15 AM 55.8°F13.2°C 43.0°F6.1°C 62% 6.0 mph SW9.7 kmh SW 13.0 mph20.9 kmh 29.54 in1000.3 mb 0.00 in0.0 mm 0.00 in0.0 mm 0.00 in0.0 mm
11:20 AM 56.1°F13.4°C 43.0°F6.1°C 61% 7.0 mph SW11.3 kmh SW 16.0 mph25.7 kmh 29.54 in1000.3 mb 0.00 in0.0 mm 0.00 in0.0 mm 0.00 in0.0 mm
11:25 AM 56.3°F13.5°C 42.6°F5.9°C 60% 8.0 mph SW12.9 kmh SW 16.0 mph25.7 kmh 29.54 in1000.3 mb 0.00 in0.0 mm 0.00 in0.0 mm 0.00 in0.0 mm
11:30 AM 56.7°F13.7°C 42.8°F6.0°C 60% 9.0 mph SW14.5 kmh SW 17.0 mph27.4 kmh 29.54 in1000.3 mb 0.00 in0.0 mm 0.00 in0.0 mm 0.00 in0.0 mm
11:35 AM 56.8°F13.8°C 43.0°F6.1°C 60% 10.0 mph SW16.1 kmh SW 17.0 mph27.4 kmh 29.54 in1000.3 mb 0.00 in0.0 mm 0.00 in0.0 mm 0.00 in0.0 mm
11:40 AM 57.4°F14.1°C 43.2°F6.2°C 59% 9.0 mph SW14.5 kmh SW 21.0 mph33.8 kmh 29.53 in1000.0 mb 0.00 in0.0 mm 0.00 in0.0 mm 0.00 in0.0 mm
11:45 AM 57.9°F14.4°C 43.3°F6.3°C 58% 10.0 mph SW16.1 kmh SW 21.0 mph33.8 kmh 29.53 in1000.0 mb 0.00 in0.0 mm 0.00 in0.0 mm 0.00 in0.0 mm
11:50 AM 58.3°F14.6°C 43.0°F6.1°C 57% 11.0 mph SW17.7 kmh SW 19.0 mph30.6 kmh 29.52 in999.7 mb 0.00 in0.0 mm 0.00 in0.0 mm 0.00 in0.0 mm
11:55 AM 58.6°F14.8°C 43.3°F6.3°C 57% 11.0 mph SW17.7 kmh SW 19.0 mph30.6 kmh 29.52 in999.7 mb 0.00 in0.0 mm 0.00 in0.0 mm 0.00 in0.0 mm
12:00 PM 59.0°F15.0°C 43.7°F6.5°C 57% 10.0 mph SW16.1 kmh SW 19.0 mph30.6 kmh 29.52 in999.7 mb 0.00 in0.0 mm 0.00 in0.0 mm 0.00 in0.0 mm
12:05 PM 59.7°F15.4°C 44.1°F6.7°C 56% 8.0 mph SW12.9 kmh SW 19.0 mph30.6 kmh 29.51 in999.3 mb 0.00 in0.0 mm 0.00 in0.0 mm 0.00 in0.0 mm
12:10 PM 59.5°F15.3°C 43.9°F6.6°C 56% 7.0 mph SW11.3 kmh SW 16.0 mph25.7 kmh 29.51 in999.3 mb 0.00 in0.0 mm 0.00 in0.0 mm 0.00 in0.0 mm
12:15 PM 59.2°F15.1°C 43.5°F6.4°C 56% 9.0 mph SW14.5 kmh SW 21.0 mph33.8 kmh 29.50 in999.0 mb 0.00 in0.0 mm 0.00 in0.0 mm 0.00 in0.0 mm
12:20 PM 59.2°F15.1°C 43.3°F6.3°C 56% 9.0 mph SW14.5 kmh SW 21.0 mph33.8 kmh 29.50 in999.0 mb 0.00 in0.0 mm 0.00 in0.0 mm 0.00 in0.0 mm
12:25 PM 59.2°F15.1°C 43.3°F6.3°C 56% 8.0 mph SW12.9 kmh SW 17.0 mph27.4 kmh 29.51 in999.3 mb 0.00 in0.0 mm 0.00 in0.0 mm 0.00 in0.0 mm
12:30 PM 59.2°F15.1°C 43.5°F6.4°C 56% 8.0 mph SW12.9 kmh SW 18.0 mph29.0 kmh 29.50 in999.0 mb 0.00 in0.0 mm 0.00 in0.0 mm 0.00 in0.0 mm
12:35 PM 59.4°F15.2°C 43.7°F6.5°C 56% 9.0 mph SW14.5 kmh SW 18.0 mph29.0 kmh 29.50 in999.0 mb 0.00 in0.0 mm 0.00 in0.0 mm 0.00 in0.0 mm
12:40 PM 59.7°F15.4°C 44.1°F6.7°C 56% 8.0 mph SW12.9 kmh SW 15.0 mph24.1 kmh 29.50 in999.0 mb 0.00 in0.0 mm 0.00 in0.0 mm 0.00 in0.0 mm
12:45 PM 60.1°F15.6°C 43.3°F6.3°C 54% 8.0 mph SW12.9 kmh SW 18.0 mph29.0 kmh 29.50 in999.0 mb 0.00 in0.0 mm 0.00 in0.0 mm 0.00 in0.0 mm
12:50 PM 60.4°F15.8°C 44.2°F6.8°C 55% 9.0 mph SW14.5 kmh SW 18.0 mph29.0 kmh 29.50 in999.0 mb 0.00 in0.0 mm 0.00 in0.0 mm 0.00 in0.0 mm
12:55 PM 60.8°F16.0°C 43.5°F6.4°C 53% 8.0 mph SW12.9 kmh SW 17.0 mph27.4 kmh 29.49 in998.6 mb 0.00 in0.0 mm 0.00 in0.0 mm 0.00 in0.0 mm
01:00 PM 60.4°F15.8°C 43.3°F6.3°C 53% 8.0 mph SW12.9 kmh SW 18.0 mph29.0 kmh 29.49 in998.6 mb 0.00 in0.0 mm 0.00 in0.0 mm 0.00 in0.0 mm
01:05 PM 60.3°F15.7°C 43.2°F6.2°C 53% 10.0 mph SW16.1 kmh SW 20.0 mph32.2 kmh 29.49 in998.6 mb 0.00 in0.0 mm 0.00 in0.0 mm 0.00 in0.0 mm
01:10 PM 60.4°F15.8°C 43.2°F6.2°C 53% 9.0 mph SW14.5 kmh SW 20.0 mph32.2 kmh 29.48 in998.3 mb 0.00 in0.0 mm 0.00 in0.0 mm 0.00 in0.0 mm
01:15 PM 60.1°F15.6°C 42.8°F6.0°C 53% 9.0 mph SW14.5 kmh SW 20.0 mph32.2 kmh 29.48 in998.3 mb 0.00 in0.0 mm 0.00 in0.0 mm 0.00 in0.0 mm
01:20 PM 59.7°F15.4°C 43.0°F6.1°C 54% 11.0 mph SW17.7 kmh SW 20.0 mph32.2 kmh 29.48 in998.3 mb 0.00 in0.0 mm 0.00 in0.0 mm 0.00 in0.0 mm
01:25 PM 59.7°F15.4°C 43.0°F6.1°C 54% 9.0 mph SW14.5 kmh SW 20.0 mph32.2 kmh 29.48 in998.3 mb 0.00 in0.0 mm 0.00 in0.0 mm 0.00 in0.0 mm
01:30 PM 59.5°F15.3°C 42.8°F6.0°C 54% 7.0 mph SW11.3 kmh SW 16.0 mph25.7 kmh 29.48 in998.3 mb 0.00 in0.0 mm 0.00 in0.0 mm 0.00 in0.0 mm
01:35 PM 59.2°F15.1°C 42.6°F5.9°C 54% 9.0 mph SW14.5 kmh SW 19.0 mph30.6 kmh 29.48 in998.3 mb 0.00 in0.0 mm 0.00 in0.0 mm 0.00 in0.0 mm
01:40 PM 59.2°F15.1°C 43.0°F6.1°C 55% 10.0 mph SW16.1 kmh SW 19.0 mph30.6 kmh 29.48 in998.3 mb 0.00 in0.0 mm 0.00 in0.0 mm 0.00 in0.0 mm
01:45 PM 59.2°F15.1°C 43.3°F6.3°C 56% 8.0 mph SW12.9 kmh SW 16.0 mph25.7 kmh 29.48 in998.3 mb 0.00 in0.0 mm 0.00 in0.0 mm 0.00 in0.0 mm
01:50 PM 59.0°F15.0°C 43.3°F6.3°C 56% 6.0 mph SW9.7 kmh SW 12.0 mph19.3 kmh 29.47 in998.0 mb 0.00 in0.0 mm 0.00 in0.0 mm 0.00 in0.0 mm
01:55 PM 59.2°F15.1°C 43.3°F6.3°C 56% 7.0 mph SW11.3 kmh SW 14.0 mph22.5 kmh 29.47 in998.0 mb 0.00 in0.0 mm 0.00 in0.0 mm 0.00 in0.0 mm
02:00 PM 59.2°F15.1°C 43.5°F6.4°C 56% 6.0 mph SW9.7 kmh SW 15.0 mph24.1 kmh 29.47 in998.0 mb 0.00 in0.0 mm 0.00 in0.0 mm 0.00 in0.0 mm
02:05 PM 59.4°F15.2°C 43.2°F6.2°C 55% 6.0 mph SW9.7 kmh SW 16.0 mph25.7 kmh 29.46 in997.6 mb 0.00 in0.0 mm 0.00 in0.0 mm 0.00 in0.0 mm
02:10 PM 59.4°F15.2°C 43.2°F6.2°C 55% 8.0 mph SW12.9 kmh SW 16.0 mph25.7 kmh 29.46 in997.6 mb 0.00 in0.0 mm 0.00 in0.0 mm 0.00 in0.0 mm
02:15 PM 59.5°F15.3°C 43.7°F6.5°C 56% 7.0 mph SW11.3 kmh SW 15.0 mph24.1 kmh 29.46 in997.6 mb 0.00 in0.0 mm 0.00 in0.0 mm 0.00 in0.0 mm
02:20 PM 59.5°F15.3°C 43.3°F6.3°C 55% 6.0 mph SW9.7 kmh SW 13.0 mph20.9 kmh 29.45 in997.3 mb 0.00 in0.0 mm 0.00 in0.0 mm 0.00 in0.0 mm
02:25 PM 59.5°F15.3°C 43.3°F6.3°C 55% 5.0 mph SW8.0 kmh SW 11.0 mph17.7 kmh 29.45 in997.3 mb 0.00 in0.0 mm 0.00 in0.0 mm 0.00 in0.0 mm
02:30 PM 59.4°F15.2°C 43.5°F6.4°C 56% 5.0 mph SW8.0 kmh SW 11.0 mph17.7 kmh 29.45 in997.3 mb 0.00 in0.0 mm 0.00 in0.0 mm 0.00 in0.0 mm
02:35 PM 59.4°F15.2°C 43.5°F6.4°C 56% 5.0 mph SW8.0 kmh SW 11.0 mph17.7 kmh 29.45 in997.3 mb 0.00 in0.0 mm 0.00 in0.0 mm 0.00 in0.0 mm
02:40 PM 59.2°F15.1°C 43.5°F6.4°C 56% 5.0 mph SW8.0 kmh SW 10.0 mph16.1 kmh 29.44 in997.0 mb 0.00 in0.0 mm 0.00 in0.0 mm 0.00 in0.0 mm
02:45 PM 59.2°F15.1°C 43.3°F6.3°C 56% 4.0 mph SW6.4 kmh SW 11.0 mph17.7 kmh 29.43 in996.6 mb 0.00 in0.0 mm 0.00 in0.0 mm 0.00 in0.0 mm
02:50 PM 59.2°F15.1°C 43.3°F6.3°C 56% 4.0 mph SW6.4 kmh SW 11.0 mph17.7 kmh 29.43 in996.6 mb 0.00 in0.0 mm 0.00 in0.0 mm 0.00 in0.0 mm
02:55 PM 59.0°F15.0°C 43.3°F6.3°C 56% 4.0 mph SW6.4 kmh SW 9.0 mph14.5 kmh 29.43 in996.6 mb 0.00 in0.0 mm 0.00 in0.0 mm 0.00 in0.0 mm
03:00 PM 59.0°F15.0°C 43.3°F6.3°C 56% 4.0 mph SSW6.4 kmh SSW 9.0 mph14.5 kmh 29.42 in996.3 mb 0.00 in0.0 mm 0.00 in0.0 mm 0.00 in0.0 mm
03:05 PM 59.0°F15.0°C 43.3°F6.3°C 56% 4.0 mph S6.4 kmh S 8.0 mph12.9 kmh 29.42 in996.3 mb 0.00 in0.0 mm 0.00 in0.0 mm 0.00 in0.0 mm
03:10 PM 58.8°F14.9°C 43.2°F6.2°C 56% 4.0 mph S6.4 kmh S 8.0 mph12.9 kmh 29.42 in996.3 mb 0.00 in0.0 mm 0.00 in0.0 mm 0.00 in0.0 mm
03:15 PM 58.6°F14.8°C 43.0°F6.1°C 56% 3.0 mph S4.8 kmh S 7.0 mph11.3 kmh 29.41 in995.9 mb 0.00 in0.0 mm 0.00 in0.0 mm 0.00 in0.0 mm
03:20 PM 58.6°F14.8°C 43.0°F6.1°C 56% 3.0 mph S4.8 kmh S 9.0 mph14.5 kmh 29.41 in995.9 mb 0.00 in0.0 mm 0.00 in0.0 mm 0.00 in0.0 mm
03:25 PM 58.5°F14.7°C 42.8°F6.0°C 56% 3.0 mph S4.8 kmh S 9.0 mph14.5 kmh 29.41 in995.9 mb 0.00 in0.0 mm 0.00 in0.0 mm 0.00 in0.0 mm
03:30 PM 58.5°F14.7°C 42.8°F6.0°C 56% 2.0 mph S3.2 kmh S 5.0 mph8.0 kmh 29.41 in995.9 mb 0.00 in0.0 mm 0.00 in0.0 mm 0.00 in0.0 mm
03:35 PM 58.5°F14.7°C 43.2°F6.2°C 57% 3.0 mph S4.8 kmh S 6.0 mph9.7 kmh 29.41 in995.9 mb 0.00 in0.0 mm 0.00 in0.0 mm 0.00 in0.0 mm
03:40 PM 58.3°F14.6°C 43.2°F6.2°C 57% 3.0 mph S4.8 kmh S 6.0 mph9.7 kmh 29.40 in995.6 mb 0.00 in0.0 mm 0.00 in0.0 mm 0.00 in0.0 mm
03:45 PM 58.3°F14.6°C 43.0°F6.1°C 57% 3.0 mph S4.8 kmh S 5.0 mph8.0 kmh 29.40 in995.6 mb 0.00 in0.0 mm 0.00 in0.0 mm 0.00 in0.0 mm
03:50 PM 57.9°F14.4°C 42.8°F6.0°C 57% 2.0 mph S3.2 kmh S 4.0 mph6.4 kmh 29.40 in995.6 mb 0.00 in0.0 mm 0.00 in0.0 mm 0.00 in0.0 mm
03:55 PM 57.9°F14.4°C 42.8°F6.0°C 57% 2.0 mph S3.2 kmh S 5.0 mph8.0 kmh 29.39 in995.3 mb 0.00 in0.0 mm 0.00 in0.0 mm 0.00 in0.0 mm
04:00 PM 57.7°F14.3°C 42.6°F5.9°C 57% 2.0 mph S3.2 kmh S 5.0 mph8.0 kmh 29.39 in995.3 mb 0.00 in0.0 mm 0.00 in0.0 mm 0.00 in0.0 mm
04:05 PM 57.7°F14.3°C 42.6°F5.9°C 57% 2.0 mph S3.2 kmh S 4.0 mph6.4 kmh 29.39 in995.3 mb 0.00 in0.0 mm 0.00 in0.0 mm 0.00 in0.0 mm
04:10 PM 57.6°F14.2°C 42.4°F5.8°C 57% 2.0 mph S3.2 kmh S 6.0 mph9.7 kmh 29.39 in995.3 mb 0.00 in0.0 mm 0.00 in0.0 mm 0.00 in0.0 mm
04:15 PM 57.6°F14.2°C 42.4°F5.8°C 57% 2.0 mph S3.2 kmh S 6.0 mph9.7 kmh 29.38 in994.9 mb 0.00 in0.0 mm 0.00 in0.0 mm 0.00 in0.0 mm
04:20 PM 57.6°F14.2°C 42.4°F5.8°C 57% 2.0 mph S3.2 kmh S 6.0 mph9.7 kmh 29.38 in994.9 mb 0.00 in0.0 mm 0.00 in0.0 mm 0.00 in0.0 mm
04:25 PM 57.4°F14.1°C 42.3°F5.7°C 57% 2.0 mph S3.2 kmh S 6.0 mph9.7 kmh 29.38 in994.9 mb 0.00 in0.0 mm 0.00 in0.0 mm 0.00 in0.0 mm
04:30 PM 57.4°F14.1°C 42.3°F5.7°C 57% 2.0 mph SSW3.2 kmh SSW 5.0 mph8.0 kmh 29.38 in994.9 mb 0.00 in0.0 mm 0.00 in0.0 mm 0.00 in0.0 mm
04:35 PM 57.6°F14.2°C 41.9°F5.5°C 56% 2.0 mph SW3.2 kmh SW 5.0 mph8.0 kmh 29.39 in995.3 mb 0.00 in0.0 mm 0.00 in0.0 mm 0.00 in0.0 mm
04:40 PM 57.4°F14.1°C 41.9°F5.5°C 56% 3.0 mph SW4.8 kmh SW 8.0 mph12.9 kmh 29.39 in995.3 mb 0.00 in0.0 mm 0.00 in0.0 mm 0.00 in0.0 mm
04:45 PM 57.4°F14.1°C 41.9°F5.5°C 56% 3.0 mph SW4.8 kmh SW 8.0 mph12.9 kmh 29.39 in995.3 mb 0.00 in0.0 mm 0.00 in0.0 mm 0.00 in0.0 mm
04:50 PM 57.6°F14.2°C 41.5°F5.3°C 55% 2.0 mph SW3.2 kmh SW 7.0 mph11.3 kmh 29.39 in995.3 mb 0.00 in0.0 mm 0.00 in0.0 mm 0.00 in0.0 mm
04:55 PM 57.6°F14.2°C 41.4°F5.2°C 55% 2.0 mph SW3.2 kmh SW 5.0 mph8.0 kmh 29.39 in995.3 mb 0.00 in0.0 mm 0.00 in0.0 mm 0.00 in0.0 mm
05:00 PM 57.4°F14.1°C 41.4°F5.2°C 55% 2.0 mph SW3.2 kmh SW 4.0 mph6.4 kmh 29.39 in995.3 mb 0.00 in0.0 mm 0.00 in0.0 mm 0.00 in0.0 mm
05:05 PM 57.4°F14.1°C 41.2°F5.1°C 55% 2.0 mph SW3.2 kmh SW 4.0 mph6.4 kmh 29.39 in995.3 mb 0.00 in0.0 mm 0.00 in0.0 mm 0.00 in0.0 mm
05:10 PM 57.2°F14.0°C 41.2°F5.1°C 55% 2.0 mph SW3.2 kmh SW 6.0 mph9.7 kmh 29.39 in995.3 mb 0.00 in0.0 mm 0.00 in0.0 mm 0.00 in0.0 mm
05:15 PM 57.2°F14.0°C 40.6°F4.8°C 54% 2.0 mph SW3.2 kmh SW 6.0 mph9.7 kmh 29.39 in995.3 mb 0.00 in0.0 mm 0.00 in0.0 mm 0.00 in0.0 mm
05:20 PM 57.4°F14.1°C 40.3°F4.6°C 53% 2.0 mph SW3.2 kmh SW 4.0 mph6.4 kmh 29.39 in995.3 mb 0.00 in0.0 mm 0.00 in0.0 mm 0.00 in0.0 mm
05:25 PM 57.4°F14.1°C 40.5°F4.7°C 53% 3.0 mph SW4.8 kmh SW 5.0 mph8.0 kmh 29.39 in995.3 mb 0.00 in0.0 mm 0.00 in0.0 mm 0.00 in0.0 mm
05:30 PM 57.4°F14.1°C 40.3°F4.6°C 53% 2.0 mph SW3.2 kmh SW 5.0 mph8.0 kmh 29.39 in995.3 mb 0.00 in0.0 mm 0.00 in0.0 mm 0.00 in0.0 mm
05:35 PM 57.2°F14.0°C 40.3°F4.6°C 53% 2.0 mph SW3.2 kmh SW 5.0 mph8.0 kmh 29.39 in995.3 mb 0.00 in0.0 mm 0.00 in0.0 mm 0.00 in0.0 mm
05:40 PM 56.8°F13.8°C 40.3°F4.6°C 54% 1.0 mph WSW1.6 kmh WSW 4.0 mph6.4 kmh 29.39 in995.3 mb 0.00 in0.0 mm 0.00 in0.0 mm 0.00 in0.0 mm
05:45 PM 56.1°F13.4°C 40.3°F4.6°C 55% Calm Calm 2.0 mph3.2 kmh 29.39 in995.3 mb 0.00 in0.0 mm 0.00 in0.0 mm 0.00 in0.0 mm
05:50 PM 55.8°F13.2°C 40.3°F4.6°C 56% Calm Calm 2.0 mph3.2 kmh 29.39 in995.3 mb 0.00 in0.0 mm 0.00 in0.0 mm 0.00 in0.0 mm
05:55 PM 55.8°F13.2°C 39.7°F4.3°C 55% 1.0 mph WSW1.6 kmh WSW 10.0 mph16.1 kmh 29.39 in995.3 mb 0.00 in0.0 mm 0.00 in0.0 mm 0.00 in0.0 mm
06:00 PM 55.9°F13.3°C 39.6°F4.2°C 54% 4.0 mph SW6.4 kmh SW 11.0 mph17.7 kmh 29.39 in995.3 mb 0.00 in0.0 mm 0.00 in0.0 mm 0.00 in0.0 mm
06:05 PM 56.1°F13.4°C 38.8°F3.8°C 52% 5.0 mph SW8.0 kmh SW 13.0 mph20.9 kmh 29.39 in995.3 mb 0.00 in0.0 mm 0.00 in0.0 mm 0.00 in0.0 mm
06:10 PM 56.3°F13.5°C 38.8°F3.8°C 52% 5.0 mph SW8.0 kmh SW 13.0 mph20.9 kmh 29.40 in995.6 mb 0.00 in0.0 mm 0.00 in0.0 mm 0.00 in0.0 mm
06:15 PM 56.7°F13.7°C 38.8°F3.8°C 51% 5.0 mph SW8.0 kmh SW 14.0 mph22.5 kmh 29.40 in995.6 mb 0.00 in0.0 mm 0.00 in0.0 mm 0.00 in0.0 mm
06:20 PM 56.7°F13.7°C 39.2°F4.0°C 52% 6.0 mph SW9.7 kmh SW 14.0 mph22.5 kmh 29.40 in995.6 mb 0.00 in0.0 mm 0.00 in0.0 mm 0.00 in0.0 mm
06:25 PM 56.5°F13.6°C 39.0°F3.9°C 52% 4.0 mph SW6.4 kmh SW 11.0 mph17.7 kmh 29.41 in995.9 mb 0.00 in0.0 mm 0.00 in0.0 mm 0.00 in0.0 mm
06:30 PM 56.3°F13.5°C 39.4°F4.1°C 53% 2.0 mph WSW3.2 kmh WSW 10.0 mph16.1 kmh 29.41 in995.9 mb 0.00 in0.0 mm 0.00 in0.0 mm 0.00 in0.0 mm
06:35 PM 56.1°F13.4°C 39.2°F4.0°C 53% 2.0 mph WSW3.2 kmh WSW 6.0 mph9.7 kmh 29.42 in996.3 mb 0.00 in0.0 mm 0.00 in0.0 mm 0.00 in0.0 mm
06:40 PM 55.9°F13.3°C 39.0°F3.9°C 53% 2.0 mph W3.2 kmh W 6.0 mph9.7 kmh 29.42 in996.3 mb 0.00 in0.0 mm 0.00 in0.0 mm 0.00 in0.0 mm
06:45 PM 56.1°F13.4°C 39.2°F4.0°C 53% 2.0 mph WNW3.2 kmh WNW 11.0 mph17.7 kmh 29.42 in996.3 mb 0.00 in0.0 mm 0.00 in0.0 mm 0.00 in0.0 mm
06:50 PM 56.1°F13.4°C 39.2°F4.0°C 53% 3.0 mph WNW4.8 kmh WNW 14.0 mph22.5 kmh 29.42 in996.3 mb 0.00 in0.0 mm 0.00 in0.0 mm 0.00 in0.0 mm
06:55 PM 56.3°F13.5°C 39.4°F4.1°C 53% 4.0 mph WNW6.4 kmh WNW 14.0 mph22.5 kmh 29.42 in996.3 mb 0.00 in0.0 mm 0.00 in0.0 mm 0.00 in0.0 mm
07:00 PM 56.1°F13.4°C 39.7°F4.3°C 54% 4.0 mph WNW6.4 kmh WNW 16.0 mph25.7 kmh 29.42 in996.3 mb 0.00 in0.0 mm 0.00 in0.0 mm 0.00 in0.0 mm
07:05 PM 55.4°F13.0°C 40.8°F4.9°C 58% 4.0 mph WNW6.4 kmh WNW 16.0 mph25.7 kmh 29.43 in996.6 mb 0.00 in0.0 mm 0.00 in0.0 mm 0.00 in0.0 mm
07:10 PM 54.1°F12.3°C 41.9°F5.5°C 63% 5.0 mph WNW8.0 kmh WNW 16.0 mph25.7 kmh 29.43 in996.6 mb 0.00 in0.0 mm 0.00 in0.0 mm 0.00 in0.0 mm
07:15 PM 52.7°F11.5°C 42.4°F5.8°C 68% 6.0 mph WNW9.7 kmh WNW 16.0 mph25.7 kmh 29.43 in996.6 mb 0.00 in0.0 mm 0.00 in0.0 mm 0.00 in0.0 mm
07:20 PM 52.0°F11.1°C 42.4°F5.8°C 70% 4.0 mph NW6.4 kmh NW 15.0 mph24.1 kmh 29.43 in996.6 mb 0.01 in0.3 mm 0.12 in3.0 mm 0.01 in0.3 mm
07:25 PM 51.6°F10.9°C 41.7°F5.4°C 69% 4.0 mph NW6.4 kmh NW 16.0 mph25.7 kmh 29.43 in996.6 mb 0.01 in0.3 mm 0.00 in0.0 mm 0.01 in0.3 mm
07:30 PM 51.3°F10.7°C 41.7°F5.4°C 70% 5.0 mph WNW8.0 kmh WNW 16.0 mph25.7 kmh 29.43 in996.6 mb 0.01 in0.3 mm 0.00 in0.0 mm 0.01 in0.3 mm
07:35 PM 50.5°F10.3°C 41.9°F5.5°C 72% 4.0 mph W6.4 kmh W 11.0 mph17.7 kmh 29.43 in996.6 mb 0.02 in0.5 mm 0.12 in3.0 mm 0.02 in0.5 mm
07:40 PM 49.8°F9.9°C 42.3°F5.7°C 75% 4.0 mph W6.4 kmh W 10.0 mph16.1 kmh 29.44 in997.0 mb 0.02 in0.5 mm 0.00 in0.0 mm 0.02 in0.5 mm
07:45 PM 49.5°F9.7°C 42.3°F5.7°C 76% 4.0 mph W6.4 kmh W 13.0 mph20.9 kmh 29.43 in996.6 mb 0.02 in0.5 mm 0.00 in0.0 mm 0.02 in0.5 mm
07:50 PM 49.1°F9.5°C 42.3°F5.7°C 77% 4.0 mph W6.4 kmh W 13.0 mph20.9 kmh 29.43 in996.6 mb 0.02 in0.5 mm 0.00 in0.0 mm 0.02 in0.5 mm
07:55 PM 48.7°F9.3°C 42.3°F5.7°C 78% 3.0 mph WSW4.8 kmh WSW 12.0 mph19.3 kmh 29.44 in997.0 mb 0.02 in0.5 mm 0.00 in0.0 mm 0.02 in0.5 mm
08:00 PM 48.6°F9.2°C 42.4°F5.8°C 79% 3.0 mph WSW4.8 kmh WSW 11.0 mph17.7 kmh 29.43 in996.6 mb 0.02 in0.5 mm 0.00 in0.0 mm 0.02 in0.5 mm
08:05 PM 48.6°F9.2°C 42.3°F5.7°C 79% 4.0 mph WSW6.4 kmh WSW 14.0 mph22.5 kmh 29.43 in996.6 mb 0.03 in0.8 mm 0.12 in3.0 mm 0.03 in0.8 mm
08:10 PM 48.2°F9.0°C 42.3°F5.7°C 80% 4.0 mph WSW6.4 kmh WSW 14.0 mph22.5 kmh 29.43 in996.6 mb 0.03 in0.8 mm 0.00 in0.0 mm 0.03 in0.8 mm
08:15 PM 47.8°F8.8°C 42.3°F5.7°C 81% 3.0 mph WSW4.8 kmh WSW 10.0 mph16.1 kmh 29.43 in996.6 mb 0.03 in0.8 mm 0.00 in0.0 mm 0.03 in0.8 mm
08:20 PM 47.8°F8.8°C 42.3°F5.7°C 81% 3.0 mph WSW4.8 kmh WSW 10.0 mph16.1 kmh 29.43 in996.6 mb 0.02 in0.5 mm 0.00 in0.0 mm 0.03 in0.8 mm
08:25 PM 47.7°F8.7°C 42.1°F5.6°C 81% 3.0 mph WSW4.8 kmh WSW 9.0 mph14.5 kmh 29.43 in996.6 mb 0.03 in0.8 mm 0.12 in3.0 mm 0.04 in1.0 mm
08:30 PM 47.5°F8.6°C 42.3°F5.7°C 82% 4.0 mph WSW6.4 kmh WSW 9.0 mph14.5 kmh 29.43 in996.6 mb 0.03 in0.8 mm 0.00 in0.0 mm 0.04 in1.0 mm
08:35 PM 47.5°F8.6°C 41.9°F5.5°C 81% 4.0 mph SW6.4 kmh SW 11.0 mph17.7 kmh 29.43 in996.6 mb 0.02 in0.5 mm 0.00 in0.0 mm 0.04 in1.0 mm
08:40 PM 47.7°F8.7°C 41.9°F5.5°C 80% 3.0 mph WSW4.8 kmh WSW 11.0 mph17.7 kmh 29.43 in996.6 mb 0.02 in0.5 mm 0.00 in0.0 mm 0.04 in1.0 mm
08:45 PM 47.7°F8.7°C 41.2°F5.1°C 78% 4.0 mph SW6.4 kmh SW 10.0 mph16.1 kmh 29.42 in996.3 mb 0.02 in0.5 mm 0.00 in0.0 mm 0.04 in1.0 mm
08:50 PM 47.8°F8.8°C 41.0°F5.0°C 77% 4.0 mph SW6.4 kmh SW 10.0 mph16.1 kmh 29.42 in996.3 mb 0.02 in0.5 mm 0.00 in0.0 mm 0.04 in1.0 mm
08:55 PM 48.4°F9.1°C 40.5°F4.7°C 74% 5.0 mph SW8.0 kmh SW 15.0 mph24.1 kmh 29.44 in997.0 mb 0.02 in0.5 mm 0.00 in0.0 mm 0.04 in1.0 mm
09:00 PM 48.9°F9.4°C 38.8°F3.8°C 68% 6.0 mph WSW9.7 kmh WSW 20.0 mph32.2 kmh 29.43 in996.6 mb 0.02 in0.5 mm 0.00 in0.0 mm 0.04 in1.0 mm
09:05 PM 49.3°F9.6°C 38.8°F3.8°C 67% 5.0 mph W8.0 kmh W 20.0 mph32.2 kmh 29.43 in996.6 mb 0.01 in0.3 mm 0.00 in0.0 mm 0.04 in1.0 mm
09:10 PM 49.3°F9.6°C 39.0°F3.9°C 68% 5.0 mph WSW8.0 kmh WSW 25.0 mph40.2 kmh 29.43 in996.6 mb 0.02 in0.5 mm 0.12 in3.0 mm 0.05 in1.3 mm
09:15 PM 48.7°F9.3°C 38.7°F3.7°C 68% 5.0 mph W8.0 kmh W 25.0 mph40.2 kmh 29.43 in996.6 mb 0.02 in0.5 mm 0.00 in0.0 mm 0.05 in1.3 mm
09:20 PM 48.7°F9.3°C 38.7°F3.7°C 68% 4.0 mph WNW6.4 kmh WNW 15.0 mph24.1 kmh 29.43 in996.6 mb 0.02 in0.5 mm 0.00 in0.0 mm 0.05 in1.3 mm
09:25 PM 49.1°F9.5°C 38.7°F3.7°C 67% 6.0 mph WSW9.7 kmh WSW 18.0 mph29.0 kmh 29.44 in997.0 mb 0.01 in0.3 mm 0.00 in0.0 mm 0.05 in1.3 mm
09:30 PM 48.9°F9.4°C 38.5°F3.6°C 67% 8.0 mph SW12.9 kmh SW 18.0 mph29.0 kmh 29.43 in996.6 mb 0.01 in0.3 mm 0.00 in0.0 mm 0.05 in1.3 mm
09:35 PM 48.7°F9.3°C 38.7°F3.7°C 68% 6.0 mph WSW9.7 kmh WSW 16.0 mph25.7 kmh 29.44 in997.0 mb 0.01 in0.3 mm 0.00 in0.0 mm 0.05 in1.3 mm
09:40 PM 48.6°F9.2°C 39.2°F4.0°C 70% 3.0 mph W4.8 kmh W 14.0 mph22.5 kmh 29.44 in997.0 mb 0.01 in0.3 mm 0.00 in0.0 mm 0.05 in1.3 mm
09:45 PM 48.6°F9.2°C 39.2°F4.0°C 70% 2.0 mph WNW3.2 kmh WNW 8.0 mph12.9 kmh 29.43 in996.6 mb 0.01 in0.3 mm 0.00 in0.0 mm 0.05 in1.3 mm
09:50 PM 48.4°F9.1°C 39.0°F3.9°C 70% 1.0 mph W1.6 kmh W 8.0 mph12.9 kmh 29.43 in996.6 mb 0.01 in0.3 mm 0.00 in0.0 mm 0.05 in1.3 mm
09:55 PM 48.6°F9.2°C 38.8°F3.8°C 69% 1.0 mph WSW1.6 kmh WSW 9.0 mph14.5 kmh 29.43 in996.6 mb 0.01 in0.3 mm 0.00 in0.0 mm 0.05 in1.3 mm
10:00 PM 48.6°F9.2°C 38.8°F3.8°C 69% 2.0 mph WSW3.2 kmh WSW 9.0 mph14.5 kmh 29.43 in996.6 mb 0.01 in0.3 mm 0.00 in0.0 mm 0.05 in1.3 mm
10:05 PM 48.6°F9.2°C 38.5°F3.6°C 68% 2.0 mph WSW3.2 kmh WSW 8.0 mph12.9 kmh 29.44 in997.0 mb 0.01 in0.3 mm 0.00 in0.0 mm 0.05 in1.3 mm
10:10 PM 48.7°F9.3°C 38.7°F3.7°C 68% 3.0 mph WSW4.8 kmh WSW 11.0 mph17.7 kmh 29.44 in997.0 mb 0.00 in0.0 mm 0.00 in0.0 mm 0.05 in1.3 mm
10:15 PM 48.7°F9.3°C 39.0°F3.9°C 69% 3.0 mph WSW4.8 kmh WSW 13.0 mph20.9 kmh 29.44 in997.0 mb 0.00 in0.0 mm 0.00 in0.0 mm 0.05 in1.3 mm
10:20 PM 48.6°F9.2°C 39.2°F4.0°C 70% 3.0 mph WSW4.8 kmh WSW 13.0 mph20.9 kmh 29.43 in996.6 mb 0.00 in0.0 mm 0.00 in0.0 mm 0.05 in1.3 mm
10:25 PM 48.6°F9.2°C 38.5°F3.6°C 68% 4.0 mph WSW6.4 kmh WSW 14.0 mph22.5 kmh 29.43 in996.6 mb 0.00 in0.0 mm 0.00 in0.0 mm 0.05 in1.3 mm
10:30 PM 48.7°F9.3°C 38.7°F3.7°C 68% 6.0 mph SW9.7 kmh SW 17.0 mph27.4 kmh 29.44 in997.0 mb 0.00 in0.0 mm 0.00 in0.0 mm 0.05 in1.3 mm
10:35 PM 48.7°F9.3°C 38.3°F3.5°C 67% 7.0 mph SW11.3 kmh SW 17.0 mph27.4 kmh 29.44 in997.0 mb 0.00 in0.0 mm 0.00 in0.0 mm 0.05 in1.3 mm
10:40 PM 48.6°F9.2°C 38.5°F3.6°C 68% 6.0 mph SW9.7 kmh SW 14.0 mph22.5 kmh 29.43 in996.6 mb 0.00 in0.0 mm 0.00 in0.0 mm 0.05 in1.3 mm
10:50 PM 48.2°F9.0°C 38.5°F3.6°C 69% 3.0 mph SW4.8 kmh SW 10.0 mph16.1 kmh 29.43 in996.6 mb 0.00 in0.0 mm 0.00 in0.0 mm 0.05 in1.3 mm
10:55 PM 48.2°F9.0°C 38.5°F3.6°C 69% 2.0 mph SW3.2 kmh SW 6.0 mph9.7 kmh 29.42 in996.3 mb 0.00 in0.0 mm 0.00 in0.0 mm 0.05 in1.3 mm
11:00 PM 48.0°F8.9°C 38.5°F3.6°C 69% 3.0 mph SW4.8 kmh SW 8.0 mph12.9 kmh 29.42 in996.3 mb 0.00 in0.0 mm 0.00 in0.0 mm 0.05 in1.3 mm
11:05 PM 48.4°F9.1°C 38.7°F3.7°C 69% 3.0 mph SW4.8 kmh SW 9.0 mph14.5 kmh 29.43 in996.6 mb 0.00 in0.0 mm 0.00 in0.0 mm 0.05 in1.3 mm
11:10 PM 48.4°F9.1°C 38.7°F3.7°C 69% 4.0 mph SW6.4 kmh SW 13.0 mph20.9 kmh 29.43 in996.6 mb 0.00 in0.0 mm 0.00 in0.0 mm 0.05 in1.3 mm
11:15 PM 48.4°F9.1°C 38.3°F3.5°C 68% 5.0 mph SW8.0 kmh SW 13.0 mph20.9 kmh 29.43 in996.6 mb 0.00 in0.0 mm 0.00 in0.0 mm 0.05 in1.3 mm
11:20 PM 48.4°F9.1°C 38.7°F3.7°C 69% 5.0 mph SW8.0 kmh SW 14.0 mph22.5 kmh 29.43 in996.6 mb 0.00 in0.0 mm 0.00 in0.0 mm 0.05 in1.3 mm
11:25 PM 48.4°F9.1°C 38.7°F3.7°C 69% 5.0 mph SW8.0 kmh SW 14.0 mph22.5 kmh 29.43 in996.6 mb 0.00 in0.0 mm 0.00 in0.0 mm 0.05 in1.3 mm
11:30 PM 48.0°F8.9°C 38.7°F3.7°C 70% 5.0 mph SW8.0 kmh SW 10.0 mph16.1 kmh 29.43 in996.6 mb 0.00 in0.0 mm 0.00 in0.0 mm 0.05 in1.3 mm
11:35 PM 47.8°F8.8°C 39.0°F3.9°C 71% 5.0 mph SW8.0 kmh SW 12.0 mph19.3 kmh 29.43 in996.6 mb 0.00 in0.0 mm 0.00 in0.0 mm 0.05 in1.3 mm
11:40 PM 47.8°F8.8°C 38.8°F3.8°C 71% 6.0 mph SW9.7 kmh SW 13.0 mph20.9 kmh 29.43 in996.6 mb 0.00 in0.0 mm 0.00 in0.0 mm 0.05 in1.3 mm
11:45 PM 47.7°F8.7°C 38.8°F3.8°C 71% 6.0 mph SW9.7 kmh SW 13.0 mph20.9 kmh 29.43 in996.6 mb 0.00 in0.0 mm 0.00 in0.0 mm 0.05 in1.3 mm
11:50 PM 47.7°F8.7°C 38.7°F3.7°C 71% 6.0 mph SW9.7 kmh SW 12.0 mph19.3 kmh 29.43 in996.6 mb 0.00 in0.0 mm 0.00 in0.0 mm 0.05 in1.3 mm
11:55 PM 47.5°F8.6°C 38.5°F3.6°C 71% 5.0 mph SW8.0 kmh SW 10.0 mph16.1 kmh 29.43 in996.6 mb 0.00 in0.0 mm 0.00 in0.0 mm 0.05 in1.3 mm